sensor_id;sensor_type;location;lat;lon;timestamp;pressure;altitude;pressure_sealevel;temperature;humidity
41624;BME280;27319;50.306;18.926;2023-05-07T00:01:39;98330.66;;;11.46;89.39
41624;BME280;27319;50.306;18.926;2023-05-07T00:05:40;98333.53;;;11.60;88.48
41624;BME280;27319;50.306;18.926;2023-05-07T00:09:21;98339.88;;;11.75;87.52
41624;BME280;27319;50.306;18.926;2023-05-07T00:12:41;98344.44;;;11.67;87.62
41624;BME280;27319;50.306;18.926;2023-05-07T00:16:42;98346.28;;;11.66;87.72
41624;BME280;27319;50.306;18.926;2023-05-07T00:20:43;98344.75;;;11.72;87.21
41624;BME280;27319;50.306;18.926;2023-05-07T00:24:44;98349.78;;;11.83;86.61
41624;BME280;27319;50.306;18.926;2023-05-07T00:28:44;98356.16;;;11.82;86.12
41624;BME280;27319;50.306;18.926;2023-05-07T00:32:25;98349.78;;;11.75;86.26
41624;BME280;27319;50.306;18.926;2023-05-07T00:35:46;98354.50;;;11.57;87.35
41624;BME280;27319;50.306;18.926;2023-05-07T00:39:47;98354.34;;;11.74;86.25
41624;BME280;27319;50.306;18.926;2023-05-07T00:43:47;98359.22;;;11.71;86.44
41624;BME280;27319;50.306;18.926;2023-05-07T00:47:48;98359.56;;;11.68;86.15
41624;BME280;27319;50.306;18.926;2023-05-07T00:51:29;98359.59;;;11.60;86.35
41624;BME280;27319;50.306;18.926;2023-05-07T00:54:50;98367.63;;;11.68;85.95
41624;BME280;27319;50.306;18.926;2023-05-07T00:58:51;98365.78;;;11.68;86.13
41624;BME280;27319;50.306;18.926;2023-05-07T01:02:51;98365.78;;;11.60;86.11
41624;BME280;27319;50.306;18.926;2023-05-07T01:06:49;98362.75;;;11.47;86.83
41624;BME280;27319;50.306;18.926;2023-05-07T01:10:10;98369.69;;;11.42;86.84
41624;BME280;27319;50.306;18.926;2023-05-07T01:13:59;98365.63;;;11.54;85.83
41624;BME280;27319;50.306;18.926;2023-05-07T01:17:59;98368.50;;;11.44;86.01
41624;BME280;27319;50.306;18.926;2023-05-07T01:21:26;98371.34;;;11.43;85.91
41624;BME280;27319;50.306;18.926;2023-05-07T01:24:27;98375.19;;;11.48;85.70
41624;BME280;27319;50.306;18.926;2023-05-07T01:27:28;98368.50;;;11.44;85.69
41624;BME280;27319;50.306;18.926;2023-05-07T01:31:00;98376.03;;;11.41;85.89
41624;BME280;27319;50.306;18.926;2023-05-07T01:34:49;98376.72;;;11.43;85.29
41624;BME280;27319;50.306;18.926;2023-05-07T01:38:30;98366.31;;;11.24;86.36
41624;BME280;27319;50.306;18.926;2023-05-07T01:41:51;98366.31;;;11.32;85.88
41624;BME280;27319;50.306;18.926;2023-05-07T01:45:52;98364.97;;;11.36;85.62
41624;BME280;27319;50.306;18.926;2023-05-07T01:49:53;98375.56;;;11.29;85.71
41624;BME280;27319;50.306;18.926;2023-05-07T01:53:56;98369.84;;;11.40;85.11
41624;BME280;27319;50.306;18.926;2023-05-07T01:57:37;98375.72;;;11.36;84.89
41624;BME280;27319;50.306;18.926;2023-05-07T02:00:39;98376.41;;;11.30;85.49
41624;BME280;27319;50.306;18.926;2023-05-07T02:04:01;98367.34;;;10.91;86.58
41624;BME280;27319;50.306;18.926;2023-05-07T02:07:42;98362.97;;;11.14;85.55
41624;BME280;27319;50.306;18.926;2023-05-07T02:10:43;98372.00;;;10.89;86.76
41624;BME280;27319;50.306;18.926;2023-05-07T02:14:04;98378.22;;;10.97;85.96
41624;BME280;27319;50.306;18.926;2023-05-07T02:18:17;98371.38;;;11.03;85.88
41624;BME280;27319;50.306;18.926;2023-05-07T02:22:18;98372.38;;;10.94;86.19
41624;BME280;27319;50.306;18.926;2023-05-07T02:25:58;98361.47;;;10.95;86.28
41624;BME280;27319;50.306;18.926;2023-05-07T02:28:59;98369.19;;;10.90;86.19
41624;BME280;27319;50.306;18.926;2023-05-07T02:32:00;98379.75;;;10.92;86.05
41624;BME280;27319;50.306;18.926;2023-05-07T02:35:01;98376.56;;;10.88;86.32
41624;BME280;27319;50.306;18.926;2023-05-07T02:38:02;98375.88;;;10.78;86.22
41624;BME280;27319;50.306;18.926;2023-05-07T02:41:03;98365.47;;;10.68;86.92
41624;BME280;27319;50.306;18.926;2023-05-07T02:44:04;98377.31;;;10.49;87.34
41624;BME280;27319;50.306;18.926;2023-05-07T02:47:05;98373.00;;;10.56;87.19
41624;BME280;27319;50.306;18.926;2023-05-07T02:50:09;98373.97;;;10.55;87.10
41624;BME280;27319;50.306;18.926;2023-05-07T02:53:10;98368.13;;;10.60;86.72
41624;BME280;27319;50.306;18.926;2023-05-07T02:56:11;98375.81;;;10.47;86.80
41624;BME280;27319;50.306;18.926;2023-05-07T02:59:11;98379.19;;;10.49;87.12
41624;BME280;27319;50.306;18.926;2023-05-07T03:02:12;98373.00;;;10.56;86.80
41624;BME280;27319;50.306;18.926;2023-05-07T03:05:13;98387.75;;;10.52;87.20
41624;BME280;27319;50.306;18.926;2023-05-07T03:08:15;98391.16;;;10.21;88.50
41624;BME280;27319;50.306;18.926;2023-05-07T03:11:15;98387.84;;;10.35;87.98
41624;BME280;27319;50.306;18.926;2023-05-07T03:14:16;98394.22;;;9.92;90.00
41624;BME280;27319;50.306;18.926;2023-05-07T03:17:17;98401.38;;;10.17;88.77
41624;BME280;27319;50.306;18.926;2023-05-07T03:20:18;98402.78;;;10.37;87.74
41624;BME280;27319;50.306;18.926;2023-05-07T03:23:39;98409.88;;;10.46;86.71
41624;BME280;27319;50.306;18.926;2023-05-07T03:27:20;98414.88;;;10.41;86.41
41624;BME280;27319;50.306;18.926;2023-05-07T03:30:21;98419.59;;;10.47;86.33
41624;BME280;27319;50.306;18.926;2023-05-07T03:33:22;98425.31;;;10.44;86.32
41624;BME280;27319;50.306;18.926;2023-05-07T03:36:23;98416.16;;;10.21;87.37
41624;BME280;27319;50.306;18.926;2023-05-07T03:39:24;98422.13;;;10.07;87.65
41624;BME280;27319;50.306;18.926;2023-05-07T03:42:25;98423.66;;;9.84;88.75
41624;BME280;27319;50.306;18.926;2023-05-07T03:45:46;98422.19;;;10.23;87.17
41624;BME280;27319;50.306;18.926;2023-05-07T03:49:47;98426.97;;;9.78;88.44
41624;BME280;27319;50.306;18.926;2023-05-07T03:53:47;98433.72;;;9.90;88.84
41624;BME280;27319;50.306;18.926;2023-05-07T03:57:28;98428.63;;;9.54;89.67
41624;BME280;27319;50.306;18.926;2023-05-07T04:00:29;98434.75;;;9.64;89.33
41624;BME280;27319;50.306;18.926;2023-05-07T04:03:34;98437.38;;;9.81;88.62
41624;BME280;27319;50.306;18.926;2023-05-07T04:06:35;98443.16;;;9.69;89.25
41624;BME280;27319;50.306;18.926;2023-05-07T04:09:36;98436.38;;;9.82;88.64
41624;BME280;27319;50.306;18.926;2023-05-07T04:12:37;98445.84;;;10.02;87.67
41624;BME280;27319;50.306;18.926;2023-05-07T04:15:38;98451.72;;;9.98;87.60
41624;BME280;27319;50.306;18.926;2023-05-07T04:18:38;98458.19;;;9.87;88.05
41624;BME280;27319;50.306;18.926;2023-05-07T04:21:40;98458.81;;;9.81;88.66
41624;BME280;27319;50.306;18.926;2023-05-07T04:24:40;98467.03;;;9.80;88.69
41624;BME280;27319;50.306;18.926;2023-05-07T04:27:41;98464.66;;;9.34;91.08
41624;BME280;27319;50.306;18.926;2023-05-07T04:30:42;98472.59;;;9.61;89.28
41624;BME280;27319;50.306;18.926;2023-05-07T04:33:43;98473.53;;;9.77;88.45
41624;BME280;27319;50.306;18.926;2023-05-07T04:36:44;98477.00;;;9.70;88.71
41624;BME280;27319;50.306;18.926;2023-05-07T04:39:45;98478.16;;;9.67;89.00
41624;BME280;27319;50.306;18.926;2023-05-07T04:42:46;98489.72;;;9.68;88.66
41624;BME280;27319;50.306;18.926;2023-05-07T04:45:47;98492.28;;;9.77;88.37
41624;BME280;27319;50.306;18.926;2023-05-07T04:48:49;98499.09;;;9.46;89.47
41624;BME280;27319;50.306;18.926;2023-05-07T04:51:50;98506.22;;;9.81;87.68
41624;BME280;27319;50.306;18.926;2023-05-07T04:54:51;98505.91;;;9.58;88.01
41624;BME280;27319;50.306;18.926;2023-05-07T04:57:52;98517.97;;;9.62;88.12
41624;BME280;27319;50.306;18.926;2023-05-07T05:00:53;98525.00;;;9.63;87.96
41624;BME280;27319;50.306;18.926;2023-05-07T05:03:54;98521.16;;;9.83;87.14
41624;BME280;27319;50.306;18.926;2023-05-07T05:06:55;98528.88;;;9.61;87.80
41624;BME280;27319;50.306;18.926;2023-05-07T05:09:56;98528.09;;;9.51;88.12
41624;BME280;27319;50.306;18.926;2023-05-07T05:12:58;98530.25;;;9.47;88.21
41624;BME280;27319;50.306;18.926;2023-05-07T05:15:59;98528.94;;;9.34;88.46
41624;BME280;27319;50.306;18.926;2023-05-07T05:19:20;98533.25;;;8.82;90.33
41624;BME280;27319;50.306;18.926;2023-05-07T05:23:20;98536.75;;;9.10;89.57
41624;BME280;27319;50.306;18.926;2023-05-07T05:27:21;98539.13;;;9.30;88.51
41624;BME280;27319;50.306;18.926;2023-05-07T05:31:22;98554.63;;;8.92;89.61
41624;BME280;27319;50.306;18.926;2023-05-07T05:35:23;98553.91;;;8.72;90.82
41624;BME280;27319;50.306;18.926;2023-05-07T05:39:24;98565.63;;;8.89;89.70
41624;BME280;27319;50.306;18.926;2023-05-07T05:43:24;98565.53;;;9.25;87.99
41624;BME280;27319;50.306;18.926;2023-05-07T05:47:25;98569.66;;;9.37;87.67
41624;BME280;27319;50.306;18.926;2023-05-07T05:51:26;98580.94;;;9.14;88.52
41624;BME280;27319;50.306;18.926;2023-05-07T05:55:27;98576.91;;;9.27;87.82
41624;BME280;27319;50.306;18.926;2023-05-07T05:59:28;98581.75;;;9.24;88.28
41624;BME280;27319;50.306;18.926;2023-05-07T06:03:31;98580.31;;;9.29;87.84
41624;BME280;27319;50.306;18.926;2023-05-07T06:07:00;98587.22;;;9.05;88.31
41624;BME280;27319;50.306;18.926;2023-05-07T06:10:01;98597.56;;;9.17;87.64
41624;BME280;27319;50.306;18.926;2023-05-07T06:13:17;98594.00;;;8.99;87.45
41624;BME280;27319;50.306;18.926;2023-05-07T06:16:18;98596.28;;;8.94;87.53
41624;BME280;27319;50.306;18.926;2023-05-07T06:19:19;98600.75;;;9.03;87.95
41624;BME280;27319;50.306;18.926;2023-05-07T06:22:23;98595.53;;;8.84;88.65
41624;BME280;27319;50.306;18.926;2023-05-07T06:25:24;98597.72;;;8.62;89.28
41624;BME280;27319;50.306;18.926;2023-05-07T06:28:25;98601.34;;;8.97;88.44
41624;BME280;27319;50.306;18.926;2023-05-07T06:31:29;98598.63;;;9.07;87.77
41624;BME280;27319;50.306;18.926;2023-05-07T06:34:51;98599.91;;;8.49;89.18
41624;BME280;27319;50.306;18.926;2023-05-07T06:38:33;98606.19;;;8.57;88.54
41624;BME280;27319;50.306;18.926;2023-05-07T06:42:14;98618.56;;;8.58;89.25
41624;BME280;27319;50.306;18.926;2023-05-07T06:46:15;98616.63;;;8.60;88.72
41624;BME280;27319;50.306;18.926;2023-05-07T06:50:03;98618.72;;;8.20;90.23
41624;BME280;27319;50.306;18.926;2023-05-07T06:53:24;98621.81;;;8.62;88.80
41624;BME280;27319;50.306;18.926;2023-05-07T06:57:07;98620.66;;;8.64;86.91
41624;BME280;27319;50.306;18.926;2023-05-07T07:00:27;98625.56;;;8.78;86.63
41624;BME280;27319;50.306;18.926;2023-05-07T07:04:28;98633.28;;;8.81;87.51
41624;BME280;27319;50.306;18.926;2023-05-07T07:08:09;98635.22;;;8.89;87.01
41624;BME280;27319;50.306;18.926;2023-05-07T07:11:30;98636.84;;;8.99;86.44
41624;BME280;27319;50.306;18.926;2023-05-07T07:15:31;98641.72;;;9.13;85.47
41624;BME280;27319;50.306;18.926;2023-05-07T07:19:00;98641.25;;;8.91;86.33
41624;BME280;27319;50.306;18.926;2023-05-07T07:22:20;98645.25;;;8.87;86.40
41624;BME280;27319;50.306;18.926;2023-05-07T07:26:21;98648.75;;;8.87;86.50
41624;BME280;27319;50.306;18.926;2023-05-07T07:30:22;98660.00;;;8.91;85.95
41624;BME280;27319;50.306;18.926;2023-05-07T07:34:22;98662.63;;;8.73;86.62
41624;BME280;27319;50.306;18.926;2023-05-07T07:38:23;98666.09;;;8.83;86.75
41624;BME280;27319;50.306;18.926;2023-05-07T07:42:23;98667.75;;;9.21;85.17
41624;BME280;27319;50.306;18.926;2023-05-07T07:46:04;98669.97;;;9.25;85.39
41624;BME280;27319;50.306;18.926;2023-05-07T07:49:25;98670.19;;;9.14;85.50
41624;BME280;27319;50.306;18.926;2023-05-07T07:52:46;98666.41;;;9.07;84.77
41624;BME280;27319;50.306;18.926;2023-05-07T07:56:46;98674.69;;;9.14;84.58
41624;BME280;27319;50.306;18.926;2023-05-07T08:00:47;98685.25;;;9.42;84.17
41624;BME280;27319;50.306;18.926;2023-05-07T08:04:48;98691.50;;;9.06;84.53
41624;BME280;27319;50.306;18.926;2023-05-07T08:08:29;98681.59;;;8.80;85.71
41624;BME280;27319;50.306;18.926;2023-05-07T08:11:50;98690.34;;;8.82;85.61
41624;BME280;27319;50.306;18.926;2023-05-07T08:15:50;98688.22;;;8.85;85.20
41624;BME280;27319;50.306;18.926;2023-05-07T08:19:51;98693.00;;;8.82;85.11
41624;BME280;27319;50.306;18.926;2023-05-07T08:23:52;98703.84;;;8.80;84.67
41624;BME280;27319;50.306;18.926;2023-05-07T08:27:35;98698.81;;;9.04;84.60
41624;BME280;27319;50.306;18.926;2023-05-07T08:31:36;98708.16;;;9.00;84.86
41624;BME280;27319;50.306;18.926;2023-05-07T08:35:37;98705.88;;;8.69;86.26
41624;BME280;27319;50.306;18.926;2023-05-07T08:39:37;98722.59;;;9.17;85.00
41624;BME280;27319;50.306;18.926;2023-05-07T08:43:38;98729.19;;;9.22;84.37
41624;BME280;27319;50.306;18.926;2023-05-07T08:47:46;98726.56;;;9.40;83.55
41624;BME280;27319;50.306;18.926;2023-05-07T08:51:45;98729.03;;;9.24;83.87
41624;BME280;27319;50.306;18.926;2023-05-07T08:55:46;98741.44;;;9.25;84.00
41624;BME280;27319;50.306;18.926;2023-05-07T08:58:51;98738.72;;;9.34;83.38
41624;BME280;27319;50.306;18.926;2023-05-07T09:01:57;98749.25;;;9.45;83.01
41624;BME280;27319;50.306;18.926;2023-05-07T09:04:57;98745.59;;;9.46;83.16
41624;BME280;27319;50.306;18.926;2023-05-07T09:08:00;98758.56;;;9.14;83.77
41624;BME280;27319;50.306;18.926;2023-05-07T09:11:22;98752.38;;;9.04;83.89
41624;BME280;27319;50.306;18.926;2023-05-07T09:15:23;98758.06;;;8.82;84.52
41624;BME280;27319;50.306;18.926;2023-05-07T09:19:24;98754.94;;;8.96;84.75
41624;BME280;27319;50.306;18.926;2023-05-07T09:23:27;98765.34;;;9.09;84.20
41624;BME280;27319;50.306;18.926;2023-05-07T09:27:29;98763.66;;;8.98;84.34
41624;BME280;27319;50.306;18.926;2023-05-07T09:31:29;98763.50;;;9.09;83.38
41624;BME280;27319;50.306;18.926;2023-05-07T09:35:37;98769.84;;;9.08;83.49
41624;BME280;27319;50.306;18.926;2023-05-07T09:39:40;98773.34;;;8.63;85.16
41624;BME280;27319;50.306;18.926;2023-05-07T09:43:40;98774.63;;;9.14;83.77
41624;BME280;27319;50.306;18.926;2023-05-07T09:47:42;98776.38;;;8.96;83.84
41624;BME280;27319;50.306;18.926;2023-05-07T09:51:28;98777.63;;;8.92;84.11
41624;BME280;27319;50.306;18.926;2023-05-07T09:54:51;98775.16;;;9.18;83.15
41624;BME280;27319;50.306;18.926;2023-05-07T09:58:52;98783.59;;;9.23;83.30
41624;BME280;27319;50.306;18.926;2023-05-07T10:02:35;98794.81;;;9.36;82.23
41624;BME280;27319;50.306;18.926;2023-05-07T10:05:56;98787.00;;;9.15;82.54
41624;BME280;27319;50.306;18.926;2023-05-07T10:09:57;98790.00;;;9.03;83.55
41624;BME280;27319;50.306;18.926;2023-05-07T10:13:38;98798.63;;;8.97;84.18
41624;BME280;27319;50.306;18.926;2023-05-07T10:16:39;98805.94;;;9.04;84.58
41624;BME280;27319;50.306;18.926;2023-05-07T10:19:42;98807.16;;;9.19;83.34
41624;BME280;27319;50.306;18.926;2023-05-07T10:22:47;98810.91;;;9.36;82.65
41624;BME280;27319;50.306;18.926;2023-05-07T10:26:08;98814.31;;;9.28;82.95
41624;BME280;27319;50.306;18.926;2023-05-07T10:33:01;98816.22;;;9.45;83.03
41624;BME280;27319;50.306;18.926;2023-05-07T10:37:01;98808.53;;;9.60;82.78
41624;BME280;27319;50.306;18.926;2023-05-07T10:41:01;98822.88;;;9.68;81.54
41624;BME280;27319;50.306;18.926;2023-05-07T10:44:06;98824.59;;;9.69;81.33
41624;BME280;27319;50.306;18.926;2023-05-07T10:47:27;98825.97;;;9.46;81.83
41624;BME280;27319;50.306;18.926;2023-05-07T10:51:19;98818.75;;;9.47;82.00
41624;BME280;27319;50.306;18.926;2023-05-07T10:54:21;98824.34;;;9.63;82.20
41624;BME280;27319;50.306;18.926;2023-05-07T10:57:33;98825.97;;;9.46;81.67
41624;BME280;27319;50.306;18.926;2023-05-07T11:05:22;98836.53;;;9.48;81.75
41624;BME280;27319;50.306;18.926;2023-05-07T11:08:23;98833.38;;;9.62;82.27
41624;BME280;27319;50.306;18.926;2023-05-07T11:11:49;98850.81;;;9.66;81.74
41624;BME280;27319;50.306;18.926;2023-05-07T11:15:53;98849.41;;;9.71;80.43
41624;BME280;27319;50.306;18.926;2023-05-07T11:19:54;98841.75;;;9.49;81.98
41624;BME280;27319;50.306;18.926;2023-05-07T11:22:55;98837.91;;;9.52;81.65
41624;BME280;27319;50.306;18.926;2023-05-07T11:26:24;98841.00;;;9.57;82.24
41624;BME280;27319;50.306;18.926;2023-05-07T11:30:24;98851.91;;;9.82;80.69
41624;BME280;27319;50.306;18.926;2023-05-07T11:34:26;98857.31;;;9.63;81.63
41624;BME280;27319;50.306;18.926;2023-05-07T11:38:01;98860.88;;;9.64;81.07
41624;BME280;27319;50.306;18.926;2023-05-07T11:41:03;98862.19;;;9.50;81.36
41624;BME280;27319;50.306;18.926;2023-05-07T11:44:25;98862.06;;;9.42;81.19
41624;BME280;27319;50.306;18.926;2023-05-07T11:48:26;98858.63;;;9.13;83.01
41624;BME280;27319;50.306;18.926;2023-05-07T11:52:07;98860.53;;;9.40;81.51
41624;BME280;27319;50.306;18.926;2023-05-07T11:55:08;98850.38;;;9.43;81.25
41624;BME280;27319;50.306;18.926;2023-05-07T11:58:29;98851.22;;;9.34;82.13
41624;BME280;27319;50.306;18.926;2023-05-07T12:01:37;98870.56;;;9.38;82.07
41624;BME280;27319;50.306;18.926;2023-05-07T12:04:38;98866.16;;;9.46;81.33
41624;BME280;27319;50.306;18.926;2023-05-07T12:07:39;98871.53;;;9.46;81.06
41624;BME280;27319;50.306;18.926;2023-05-07T12:11:00;98871.41;;;9.29;81.33
41624;BME280;27319;50.306;18.926;2023-05-07T12:14:43;98867.25;;;9.53;82.13
41624;BME280;27319;50.306;18.926;2023-05-07T12:17:44;98867.09;;;9.64;81.62
41624;BME280;27319;50.306;18.926;2023-05-07T12:20:46;98877.91;;;9.72;79.95
41624;BME280;27319;50.306;18.926;2023-05-07T12:24:07;98880.84;;;9.42;80.86
41624;BME280;27319;50.306;18.926;2023-05-07T12:27:52;98878.22;;;9.69;79.78
41624;BME280;27319;50.306;18.926;2023-05-07T12:30:53;98878.84;;;9.44;80.02
41624;BME280;27319;50.306;18.926;2023-05-07T12:33:54;98882.31;;;9.64;79.56
41624;BME280;27319;50.306;18.926;2023-05-07T12:36:55;98877.25;;;9.51;79.44
41624;BME280;27319;50.306;18.926;2023-05-07T12:40:09;98890.19;;;9.19;81.22
41624;BME280;27319;50.306;18.926;2023-05-07T12:43:21;98890.72;;;9.32;80.63
41624;BME280;27319;50.306;18.926;2023-05-07T12:46:42;98890.03;;;9.30;80.03
41624;BME280;27319;50.306;18.926;2023-05-07T12:50:42;98892.00;;;9.28;80.50
41624;BME280;27319;50.306;18.926;2023-05-07T12:54:47;98898.91;;;9.21;80.64
41624;BME280;27319;50.306;18.926;2023-05-07T12:58:30;98888.88;;;9.42;80.26
41624;BME280;27319;50.306;18.926;2023-05-07T13:01:51;98889.78;;;9.60;80.26
41624;BME280;27319;50.306;18.926;2023-05-07T13:05:52;98904.91;;;9.52;80.38
41624;BME280;27319;50.306;18.926;2023-05-07T13:09:53;98906.63;;;9.43;80.39
41624;BME280;27319;50.306;18.926;2023-05-07T13:13:53;98898.31;;;9.46;81.95
41624;BME280;27319;50.306;18.926;2023-05-07T13:17:54;98899.66;;;9.69;79.87
41624;BME280;27319;50.306;18.926;2023-05-07T13:21:55;98896.66;;;9.72;79.58
41624;BME280;27319;50.306;18.926;2023-05-07T13:25:56;98900.59;;;9.78;78.99
41624;BME280;27319;50.306;18.926;2023-05-07T13:29:57;98900.78;;;9.67;80.00
41624;BME280;27319;50.306;18.926;2023-05-07T13:33:57;98907.44;;;9.63;80.01
41624;BME280;27319;50.306;18.926;2023-05-07T13:37:58;98907.56;;;9.61;79.70
41624;BME280;27319;50.306;18.926;2023-05-07T13:41:59;98905.31;;;9.57;79.11
41624;BME280;27319;50.306;18.926;2023-05-07T13:46:00;98906.72;;;9.61;79.20
41624;BME280;27319;50.306;18.926;2023-05-07T13:50:01;98906.44;;;9.64;80.27
41624;BME280;27319;50.306;18.926;2023-05-07T13:54:02;98901.81;;;9.47;79.30
41624;BME280;27319;50.306;18.926;2023-05-07T13:58:03;98897.72;;;9.52;79.49
41624;BME280;27319;50.306;18.926;2023-05-07T14:02:04;98911.13;;;9.52;79.29
41624;BME280;27319;50.306;18.926;2023-05-07T14:05:54;98910.03;;;9.36;79.98
41624;BME280;27319;50.306;18.926;2023-05-07T14:08:55;98908.63;;;9.22;79.93
41624;BME280;27319;50.306;18.926;2023-05-07T14:12:18;98920.31;;;9.40;80.23
41624;BME280;27319;50.306;18.926;2023-05-07T14:16:19;98926.66;;;9.39;79.51
41624;BME280;27319;50.306;18.926;2023-05-07T14:20:11;98924.59;;;9.14;80.38
41624;BME280;27319;50.306;18.926;2023-05-07T14:23:58;98931.03;;;9.31;79.64
41624;BME280;27319;50.306;18.926;2023-05-07T14:27:59;98926.66;;;9.39;79.45
41624;BME280;27319;50.306;18.926;2023-05-07T14:31:59;98929.94;;;9.14;79.66
41624;BME280;27319;50.306;18.926;2023-05-07T14:36:00;98937.66;;;9.36;79.48
41624;BME280;27319;50.306;18.926;2023-05-07T14:40:01;98940.03;;;9.39;79.59
41624;BME280;27319;50.306;18.926;2023-05-07T14:44:02;98938.66;;;9.45;80.55
41624;BME280;27319;50.306;18.926;2023-05-07T14:48:03;98938.31;;;9.57;79.85
41624;BME280;27319;50.306;18.926;2023-05-07T14:52:04;98952.47;;;9.50;79.55
41624;BME280;27319;50.306;18.926;2023-05-07T14:56:05;98951.78;;;9.29;79.00
41624;BME280;27319;50.306;18.926;2023-05-07T15:00:06;98958.13;;;9.18;79.93
41624;BME280;27319;50.306;18.926;2023-05-07T15:04:06;98959.38;;;9.24;79.87
41624;BME280;27319;50.306;18.926;2023-05-07T15:07:47;98957.28;;;9.27;79.62
41624;BME280;27319;50.306;18.926;2023-05-07T15:10:48;98963.75;;;9.34;79.56
41624;BME280;27319;50.306;18.926;2023-05-07T15:13:50;98962.50;;;9.19;79.52
41624;BME280;27319;50.306;18.926;2023-05-07T15:17:10;98975.16;;;9.17;79.62
41624;BME280;27319;50.306;18.926;2023-05-07T15:21:11;98983.06;;;9.09;80.01
41624;BME280;27319;50.306;18.926;2023-05-07T15:25:12;98976.88;;;8.80;80.42
41624;BME280;27319;50.306;18.926;2023-05-07T15:28:53;98971.38;;;8.82;80.47
41624;BME280;27319;50.306;18.926;2023-05-07T15:32:16;98975.59;;;9.03;79.74
41624;BME280;27319;50.306;18.926;2023-05-07T15:36:17;98977.03;;;9.07;79.56
41624;BME280;27319;50.306;18.926;2023-05-07T15:40:17;98977.59;;;9.01;79.78
41624;BME280;27319;50.306;18.926;2023-05-07T15:44:18;98980.66;;;8.97;80.18
41624;BME280;27319;50.306;18.926;2023-05-07T15:48:19;98983.22;;;8.89;79.56
41624;BME280;27319;50.306;18.926;2023-05-07T15:52:20;98984.56;;;8.64;80.70
41624;BME280;27319;50.306;18.926;2023-05-07T15:56:21;98986.00;;;8.78;80.00
41624;BME280;27319;50.306;18.926;2023-05-07T16:00:22;98988.81;;;8.76;80.54
41624;BME280;27319;50.306;18.926;2023-05-07T16:04:22;98981.31;;;8.51;81.31
41624;BME280;27319;50.306;18.926;2023-05-07T16:08:04;98981.22;;;8.62;81.01
41624;BME280;27319;50.306;18.926;2023-05-07T16:11:24;98982.34;;;8.69;80.61
41624;BME280;27319;50.306;18.926;2023-05-07T16:15:25;98988.13;;;8.74;80.66
41624;BME280;27319;50.306;18.926;2023-05-07T16:19:26;98986.56;;;8.72;80.13
41624;BME280;27319;50.306;18.926;2023-05-07T16:23:27;98991.50;;;8.67;81.03
41624;BME280;27319;50.306;18.926;2023-05-07T16:27:28;98994.72;;;8.70;80.57
41624;BME280;27319;50.306;18.926;2023-05-07T16:31:29;98997.38;;;8.61;80.12
41624;BME280;27319;50.306;18.926;2023-05-07T16:35:29;98993.13;;;8.39;80.71
41624;BME280;27319;50.306;18.926;2023-05-07T16:39:30;98996.34;;;8.33;80.84
41624;BME280;27319;50.306;18.926;2023-05-07T16:43:31;98998.31;;;8.31;81.17
41624;BME280;27319;50.306;18.926;2023-05-07T16:47:32;99004.59;;;8.60;80.76
41624;BME280;27319;50.306;18.926;2023-05-07T16:51:33;98996.13;;;8.55;80.27
41624;BME280;27319;50.306;18.926;2023-05-07T16:55:35;98998.38;;;8.50;80.71
41624;BME280;27319;50.306;18.926;2023-05-07T16:59:35;99007.38;;;8.49;80.57
41624;BME280;27319;50.306;18.926;2023-05-07T17:03:36;99004.84;;;8.57;80.66
41624;BME280;27319;50.306;18.926;2023-05-07T17:07:17;99007.09;;;8.52;80.49
41624;BME280;27319;50.306;18.926;2023-05-07T17:10:38;99012.72;;;8.49;80.39
41624;BME280;27319;50.306;18.926;2023-05-07T17:14:38;99009.59;;;8.35;81.04
41624;BME280;27319;50.306;18.926;2023-05-07T17:18:19;99028.78;;;8.49;80.12
41624;BME280;27319;50.306;18.926;2023-05-07T17:21:40;99021.84;;;8.37;80.19
41624;BME280;27319;50.306;18.926;2023-05-07T17:25:21;99021.28;;;8.43;80.45
41624;BME280;27319;50.306;18.926;2023-05-07T17:28:22;99015.16;;;8.22;81.24
41624;BME280;27319;50.306;18.926;2023-05-07T17:31:23;99022.63;;;8.28;80.79
41624;BME280;27319;50.306;18.926;2023-05-07T17:34:24;99029.91;;;8.47;80.52
41624;BME280;27319;50.306;18.926;2023-05-07T17:37:25;99033.00;;;8.22;80.76
41624;BME280;27319;50.306;18.926;2023-05-07T17:40:26;99029.72;;;8.18;80.86
41624;BME280;27319;50.306;18.926;2023-05-07T17:43:29;99028.34;;;8.14;80.87
41624;BME280;27319;50.306;18.926;2023-05-07T17:46:30;99032.69;;;8.15;81.55
41624;BME280;27319;50.306;18.926;2023-05-07T17:49:31;99037.31;;;8.13;81.36
41624;BME280;27319;50.306;18.926;2023-05-07T17:52:32;99041.03;;;8.01;81.28
41624;BME280;27319;50.306;18.926;2023-05-07T17:55:33;99049.06;;;8.22;81.09
41624;BME280;27319;50.306;18.926;2023-05-07T17:58:53;99037.31;;;8.13;81.51
41624;BME280;27319;50.306;18.926;2023-05-07T18:02:16;99032.25;;;8.10;81.43
41624;BME280;27319;50.306;18.926;2023-05-07T18:06:17;99032.03;;;8.02;81.26
41624;BME280;27319;50.306;18.926;2023-05-07T18:10:14;99047.13;;;8.03;81.17
41624;BME280;27319;50.306;18.926;2023-05-07T18:14:15;99052.47;;;8.03;80.80
41624;BME280;27319;50.306;18.926;2023-05-07T18:18:16;99056.38;;;7.99;80.79
41624;BME280;27319;50.306;18.926;2023-05-07T18:22:17;99053.59;;;8.01;81.30
41624;BME280;27319;50.306;18.926;2023-05-07T18:26:17;99065.47;;;7.87;81.97
41624;BME280;27319;50.306;18.926;2023-05-07T18:30:09;99054.31;;;7.82;81.96
41624;BME280;27319;50.306;18.926;2023-05-07T18:33:30;99057.25;;;8.00;81.50
41624;BME280;27319;50.306;18.926;2023-05-07T18:37:31;99063.22;;;8.13;81.18
41624;BME280;27319;50.306;18.926;2023-05-07T18:41:32;99061.25;;;8.15;81.01
41624;BME280;27319;50.306;18.926;2023-05-07T18:45:33;99075.56;;;8.04;81.19
41624;BME280;27319;50.306;18.926;2023-05-07T18:49:34;99067.84;;;7.90;81.55
41624;BME280;27319;50.306;18.926;2023-05-07T18:53:34;99073.47;;;7.87;81.49
41624;BME280;27319;50.306;18.926;2023-05-07T18:57:35;99065.00;;;7.82;81.31
41624;BME280;27319;50.306;18.926;2023-05-07T19:01:36;99076.47;;;7.73;81.84